Time;durP1;ratioP1;P1;durP2;ratioP2;P2;SDS_P1;SDS_P2;PMS_P1;PMS_P2;Temp;Humidity;BMP_temperature;BMP_pressure;BME280_temperature;BME280_humidity;BME280_pressure;Samples;Min_cycle;Max_cycle;Signal;HPM_P1;HPM_P2
2023/08/27 00:01:57;;;;;;;8.40;4.78;;;;;;;30.49;55.60;100716.56;4920146;28;66363;-35
2023/08/27 00:04:27;;;;;;;3.90;3.60;;;;;;;30.51;55.73;100719.88;4918598;28;70369;-35
2023/08/27 00:06:57;;;;;;;4.43;3.92;;;;;;;30.52;56.14;100707.97;4912334;28;66655;-35
2023/08/27 00:09:27;;;;;;;6.30;4.70;;;;;;;30.59;56.90;100722.31;4914741;28;69449;-34
2023/08/27 00:11:57;;;;;;;8.82;4.55;;;;;;;30.58;59.46;100717.91;4922477;28;65539;-36
2023/08/27 00:14:28;;;;;;;8.13;5.10;;;;;;;30.69;60.15;100738.84;4916116;28;69202;-37
2023/08/27 00:16:58;;;;;;;11.68;5.63;;;;;;;30.66;61.96;100725.75;4918136;28;66637;-35
2023/08/27 00:19:28;;;;;;;8.02;5.75;;;;;;;30.80;62.59;100739.22;4899525;28;69847;-36
2023/08/27 00:21:58;;;;;;;14.43;5.20;;;;;;;30.80;63.63;100733.78;4900314;28;65879;-35
2023/08/27 00:24:28;;;;;;;10.52;4.00;;;;;;;30.82;63.99;100737.13;4917949;28;70568;-35
2023/08/27 00:26:58;;;;;;;8.25;4.18;;;;;;;30.86;65.25;100730.19;4915719;28;66378;-36
2023/08/27 00:29:29;;;;;;;6.57;3.60;;;;;;;30.89;65.23;100727.03;4897052;28;70395;-35
2023/08/27 00:31:59;;;;;;;5.90;3.85;;;;;;;30.91;64.14;100730.34;4900223;28;65344;-35
2023/08/27 00:34:43;;;;;;;9.20;3.55;;;;;;;30.94;65.99;100736.13;4894773;28;71016;-36
2023/08/27 00:37:14;;;;;;;5.55;3.30;;;;;;;31.02;66.96;100737.72;4911654;28;65176;-36
2023/08/27 00:39:44;;;;;;;8.35;3.65;;;;;;;31.00;67.32;100739.00;4911589;28;70064;-36
2023/08/27 00:42:14;;;;;;;4.72;2.92;;;;;;;31.10;65.15;100740.13;4918733;28;65643;-36
2023/08/27 00:44:44;;;;;;;8.52;2.95;;;;;;;31.13;68.41;100747.00;4897014;28;70573;-35
2023/08/27 00:47:17;;;;;;;12.20;11.05;;;;;;;31.18;67.51;100752.56;4892870;28;65937;-36
2023/08/27 00:49:47;;;;;;;17.77;15.13;;;;;;;31.22;67.35;100748.34;4892814;28;70483;-36
2023/08/27 00:52:20;;;;;;;26.27;17.50;;;;;;;31.19;64.78;100745.25;4914679;28;66141;-35
2023/08/27 00:54:51;;;;;;;23.35;17.13;;;;;;;31.15;64.53;100743.00;4917802;28;70153;-35
2023/08/27 00:57:21;;;;;;;18.55;15.85;;;;;;;31.24;64.06;100750.84;4909216;28;66034;-36
2023/08/27 00:59:54;;;;;;;27.77;16.65;;;;;;;31.28;63.97;100758.28;4903509;28;69824;-36
2023/08/27 01:02:24;;;;;;;32.58;18.40;;;;;;;31.27;64.22;100750.38;4905381;28;65512;-35
2023/08/27 01:04:55;;;;;;;37.83;20.47;;;;;;;31.31;64.36;100762.41;4888006;28;70336;-35
2023/08/27 01:08:14;;;;;;;31.60;19.25;;;;;;;31.25;66.34;100763.31;4918817;28;66583;-36
2023/08/27 01:11:02;;;;;;;31.67;18.27;;;;;;;31.36;64.38;100754.47;4898259;28;70047;-35
2023/08/27 01:13:52;;;;;;;31.63;17.92;;;;;;;31.30;65.42;100760.78;4902298;28;66450;-36
2023/08/27 01:16:26;;;;;;;33.20;16.58;;;;;;;31.39;64.10;100770.28;4901126;28;69129;-36
2023/08/27 01:19:00;;;;;;;29.92;17.40;;;;;;;31.46;64.02;100764.78;4904336;28;66375;-36
2023/08/27 01:21:30;;;;;;;30.48;16.85;;;;;;;31.39;64.10;100764.84;4895975;28;70178;-35
2023/08/27 01:24:00;;;;;;;31.83;17.63;;;;;;;31.36;63.97;100746.34;4900884;28;65652;-36
2023/08/27 01:26:47;;;;;;;30.23;15.43;;;;;;;31.47;65.23;100767.25;4919013;28;69989;-36
2023/08/27 01:29:48;;;;;;;20.48;14.43;;;;;;;31.45;65.80;100761.22;4901597;28;66020;-36
2023/08/27 01:32:30;;;;;;;20.95;12.55;;;;;;;31.51;65.47;100762.19;4890935;28;69087;-36
2023/08/27 01:35:03;;;;;;;23.97;13.30;;;;;;;31.53;64.81;100752.78;4921072;28;66165;-36
2023/08/27 01:37:33;;;;;;;23.38;12.55;;;;;;;31.60;66.31;100758.16;4920217;28;68751;-36
2023/08/27 01:40:08;;;;;;;22.13;11.30;;;;;;;31.53;68.26;100744.66;4900232;28;66023;-36
2023/08/27 01:42:38;;;;;;;21.05;10.30;;;;;;;31.61;70.00;100757.91;4910990;28;68981;-36
2023/08/27 01:45:09;;;;;;;15.63;9.18;;;;;;;31.26;69.92;100686.38;4910754;28;66769;-44
2023/08/27 01:47:40;;;;;;;11.80;8.40;;;;;;;31.65;69.49;100747.44;4895951;28;69629;-36
2023/08/27 01:50:10;;;;;;;18.67;8.02;;;;;;;31.69;70.01;100747.81;4898391;28;65998;-35
2023/08/27 01:52:41;;;;;;;10.65;6.50;;;;;;;31.73;68.23;100743.56;4912334;28;70091;-35
2023/08/27 01:55:11;;;;;;;8.70;6.50;;;;;;;31.64;67.21;100723.25;4914747;28;66452;-37
2023/08/27 01:57:41;;;;;;;10.93;6.38;;;;;;;31.77;66.95;100744.78;4917200;28;69580;-36
2023/08/27 02:00:16;;;;;;;8.57;5.87;;;;;;;31.77;66.53;100734.75;4912144;28;66193;-36
2023/08/27 02:02:50;;;;;;;7.03;6.07;;;;;;;31.77;66.41;100728.50;4912581;28;69775;-37
2023/08/27 02:05:21;;;;;;;10.18;5.65;;;;;;;31.81;65.92;100740.53;4908944;28;67082;-36
2023/08/27 02:07:51;;;;;;;6.03;5.43;;;;;;;31.86;66.23;100726.28;4874887;28;69158;-36
2023/08/27 02:10:23;;;;;;;6.13;5.32;;;;;;;31.89;66.09;100740.22;4911102;28;66041;-36
2023/08/27 02:12:53;;;;;;;5.75;5.25;;;;;;;31.94;65.78;100734.97;4911542;28;70153;-35
2023/08/27 02:15:23;;;;;;;7.57;5.82;;;;;;;31.97;65.41;100734.50;4908671;28;66679;-37
2023/08/27 02:17:53;;;;;;;8.25;5.65;;;;;;;32.00;65.62;100730.50;4905768;28;69346;-37
2023/08/27 02:20:23;;;;;;;5.50;5.00;;;;;;;32.02;65.63;100729.22;4916772;28;67039;-37
2023/08/27 02:22:55;;;;;;;5.10;4.53;;;;;;;32.05;65.49;100731.44;4888917;28;71146;-35
2023/08/27 02:25:25;;;;;;;5.63;4.70;;;;;;;32.08;65.40;100729.34;4909249;28;66110;-36
2023/08/27 02:27:55;;;;;;;6.10;4.97;;;;;;;32.11;65.58;100729.69;4907852;28;69833;-36
2023/08/27 02:30:26;;;;;;;5.57;5.00;;;;;;;32.13;65.78;100733.00;4905169;28;66625;-36
2023/08/27 02:32:56;;;;;;;6.00;5.13;;;;;;;32.18;65.80;100743.16;4915506;28;70226;-36
2023/08/27 02:35:34;;;;;;;5.20;4.68;;;;;;;32.20;65.49;100732.91;4898444;29;66460;-35
2023/08/27 02:38:09;;;;;;;5.67;5.17;;;;;;;32.21;65.85;100723.72;4913553;28;69227;-36
2023/08/27 02:40:40;;;;;;;4.75;4.32;;;;;;;32.25;65.48;100741.19;4903817;28;66342;-36
2023/08/27 02:43:10;;;;;;;10.50;6.03;;;;;;;32.26;65.95;100737.38;4901042;28;70104;-35
2023/08/27 02:45:42;;;;;;;5.30;4.80;;;;;;;32.28;66.28;100725.25;4912488;28;66168;-36
2023/08/27 02:48:12;;;;;;;8.48;5.43;;;;;;;32.32;65.83;100725.63;4917046;28;69770;-35
2023/08/27 02:50:42;;;;;;;7.88;5.60;;;;;;;32.34;66.08;100728.09;4895183;28;65431;-36
2023/08/27 02:53:12;;;;;;;6.85;5.45;;;;;;;32.37;66.15;100723.00;4914357;28;68746;-36
2023/08/27 02:55:42;;;;;;;8.63;6.20;;;;;;;32.39;66.33;100725.50;4897325;28;66068;-40
2023/08/27 02:58:13;;;;;;;8.27;6.70;;;;;;;32.42;66.24;100715.00;4896120;28;69748;-35
2023/08/27 03:00:43;;;;;;;8.15;6.25;;;;;;;32.45;66.29;100719.94;4910994;28;66745;-35
2023/08/27 03:03:13;;;;;;;8.38;5.85;;;;;;;32.48;66.42;100716.81;4900021;28;69365;-35
2023/08/27 03:05:43;;;;;;;11.77;7.35;;;;;;;32.52;66.54;100719.06;4902156;28;67284;-34
2023/08/27 03:08:14;;;;;;;;;;;;;;;32.29;68.63;100717.94;4895203;28;70142;-35
2023/08/27 03:10:45;;;;;;;6.60;5.75;;;;;;;32.55;66.38;100721.31;4903909;28;66586;-36
2023/08/27 03:13:14;;;;;;;7.35;6.18;;;;;;;32.58;66.53;100701.81;4886502;29;70232;-35
2023/08/27 03:15:45;;;;;;;9.90;6.95;;;;;;;32.62;66.65;100702.97;4886393;28;66738;-36
2023/08/27 03:18:15;;;;;;;7.82;6.05;;;;;;;32.66;66.72;100704.19;4871782;28;69903;-35
2023/08/27 03:20:45;;;;;;;10.88;6.38;;;;;;;32.68;66.35;100702.03;4899556;28;66861;-36
2023/08/27 03:23:16;;;;;;;7.82;6.20;;;;;;;32.69;66.65;100698.28;4869808;29;70295;-35
2023/08/27 03:25:49;;;;;;;7.93;5.45;;;;;;;32.66;66.74;100685.16;4887373;28;65687;-36
2023/08/27 03:28:21;;;;;;;6.82;5.85;;;;;;;32.76;66.65;100690.00;4901289;28;69739;-36
2023/08/27 03:30:51;;;;;;;7.03;6.07;;;;;;;32.78;67.01;100691.41;4896356;28;65896;-35
2023/08/27 03:33:22;;;;;;;7.38;5.55;;;;;;;32.82;66.81;100697.19;4885881;29;69062;-43
2023/08/27 03:35:56;;;;;;;7.63;5.65;;;;;;;32.84;67.07;100695.88;4890588;29;65795;-37
2023/08/27 03:38:26;;;;;;;6.35;4.82;;;;;;;32.86;66.67;100682.91;4893972;28;69497;-35
2023/08/27 03:40:56;;;;;;;5.57;4.95;;;;;;;32.88;66.56;100693.53;4895892;28;66356;-36
2023/08/27 03:43:28;;;;;;;8.10;4.90;;;;;;;32.58;66.60;100631.22;4895262;28;70465;-35
2023/08/27 03:45:58;;;;;;;6.05;5.03;;;;;;;32.88;66.29;100691.63;4881785;28;66246;-36
2023/08/27 03:48:28;;;;;;;10.70;5.85;;;;;;;32.81;66.74;100674.63;4894613;28;70090;-36
2023/08/27 03:50:58;;;;;;;9.43;7.63;;;;;;;32.98;68.18;100684.75;4890393;28;66788;-37
2023/08/27 03:53:29;;;;;;;9.52;8.55;;;;;;;32.92;68.39;100681.94;4889463;29;69139;-37
2023/08/27 03:56:03;;;;;;;8.52;7.82;;;;;;;32.90;69.11;100677.78;4875159;29;65266;-37
2023/08/27 03:58:33;;;;;;;10.82;7.65;;;;;;;32.86;69.98;100671.22;4883596;29;69652;-37
2023/08/27 04:01:04;;;;;;;7.60;7.00;;;;;;;32.89;69.57;100666.09;4893710;28;65682;-36
2023/08/27 04:03:34;;;;;;;9.98;7.72;;;;;;;32.83;70.45;100660.81;4882283;29;69381;-37
2023/08/27 04:06:08;;;;;;;8.23;7.22;;;;;;;32.87;70.68;100668.22;4883351;28;65360;-36
2023/08/27 04:08:39;;;;;;;6.78;6.22;;;;;;;32.88;70.61;100663.66;4901316;28;69758;-35
2023/08/27 04:11:09;;;;;;;7.15;6.55;;;;;;;32.88;70.95;100669.91;4902543;28;66019;-35
2023/08/27 04:13:40;;;;;;;12.90;7.70;;;;;;;32.88;70.75;100648.16;4896559;28;69857;-36
2023/08/27 04:16:12;;;;;;;14.25;9.32;;;;;;;32.91;70.93;100660.44;4909684;28;66214;-36
2023/08/27 04:18:42;;;;;;;14.32;9.00;;;;;;;32.91;72.39;100658.56;4892985;28;70373;-38
2023/08/27 04:21:14;;;;;;;18.70;9.68;;;;;;;32.92;72.40;100649.31;4897765;28;43538;-36
2023/08/27 04:23:46;;;;;;;17.33;10.15;;;;;;;32.93;72.62;100651.00;4895509;28;70725;-37
2023/08/27 04:26:18;;;;;;;14.25;9.82;;;;;;;32.97;72.36;100651.34;4919428;28;65456;-37
2023/08/27 04:28:50;;;;;;;21.45;10.05;;;;;;;32.98;72.13;100641.28;4876437;28;69245;-36
2023/08/27 04:31:21;;;;;;;25.58;11.88;;;;;;;33.00;72.23;100631.03;4898923;28;66408;-35
2023/08/27 04:33:52;;;;;;;19.50;10.95;;;;;;;32.95;72.42;100631.72;4900378;28;68838;-37
2023/08/27 04:36:22;;;;;;;31.58;11.57;;;;;;;33.01;71.85;100622.63;4915070;28;66004;-36
2023/08/27 04:38:52;;;;;;;14.35;9.38;;;;;;;33.01;72.08;100624.53;4900310;28;70391;-38
2023/08/27 04:41:24;;;;;;;14.63;9.83;;;;;;;32.98;71.97;100606.78;4895910;28;66159;-36
2023/08/27 04:43:54;;;;;;;14.30;9.60;;;;;;;32.90;72.47;100586.28;4916801;28;70512;-37
2023/08/27 04:46:24;;;;;;;11.40;8.85;;;;;;;33.07;72.14;100612.69;4910634;28;66543;-38
2023/08/27 04:48:54;;;;;;;10.10;8.68;;;;;;;33.06;72.15;100601.00;4911002;28;70146;-37
2023/08/27 04:51:28;;;;;;;11.48;9.55;;;;;;;32.99;72.11;100573.13;4916509;28;65738;-38
2023/08/27 04:53:58;;;;;;;11.13;9.13;;;;;;;33.10;71.69;100587.78;4895884;28;70132;-36
2023/08/27 04:56:29;;;;;;;12.73;9.55;;;;;;;33.04;71.92;100575.97;4911531;28;65351;-37
2023/08/27 04:58:59;;;;;;;10.63;9.73;;;;;;;33.09;71.13;100573.34;4911352;28;69244;-36
2023/08/27 05:01:30;;;;;;;12.55;9.10;;;;;;;33.09;70.61;100573.34;4901660;28;66508;-36
2023/08/27 05:04:00;;;;;;;12.35;9.77;;;;;;;33.09;70.57;100567.09;4900349;28;69288;-38
2023/08/27 05:06:31;;;;;;;10.50;9.45;;;;;;;33.10;69.78;100575.00;4917025;28;66335;-46
2023/08/27 05:09:01;;;;;;;9.75;8.50;;;;;;;33.08;69.63;100565.44;4897233;28;70468;-36
2023/08/27 05:11:31;;;;;;;12.07;9.48;;;;;;;33.11;69.47;100554.09;4911690;28;66346;-36
2023/08/27 05:14:02;;;;;;;12.23;8.65;;;;;;;33.11;69.54;100559.53;4918320;28;71324;-36
2023/08/27 05:16:34;;;;;;;9.93;8.93;;;;;;;33.12;69.42;100555.72;4909681;28;66561;-35
2023/08/27 05:19:04;;;;;;;11.60;9.75;;;;;;;33.11;69.41;100548.66;4896204;28;70455;-36
2023/08/27 05:21:35;;;;;;;9.38;8.55;;;;;;;33.11;69.09;100543.22;4912294;28;65484;-37
2023/08/27 05:24:05;;;;;;;8.85;7.95;;;;;;;33.12;69.21;100528.53;4894302;28;70998;-37
2023/08/27 05:26:35;;;;;;;10.43;9.43;;;;;;;33.16;68.63;100518.84;4902089;28;66894;-37
2023/08/27 05:29:05;;;;;;;8.93;8.23;;;;;;;33.08;68.55;100511.91;4891613;28;69990;-37
2023/08/27 05:31:36;;;;;;;7.15;6.53;;;;;;;33.21;66.30;100509.94;4918337;28;66054;-35
2023/08/27 05:34:06;;;;;;;9.17;5.47;;;;;;;33.21;65.57;100489.06;4904199;28;70113;-36
2023/08/27 05:36:36;;;;;;;10.13;6.25;;;;;;;33.23;66.12;100499.66;4917933;28;66580;-37
2023/08/27 05:39:06;;;;;;;5.82;5.30;;;;;;;33.20;65.02;100492.00;4906077;28;70777;-36
2023/08/27 05:41:36;;;;;;;7.68;5.03;;;;;;;33.11;63.19;100488.88;4907014;28;65668;-37
2023/08/27 05:44:06;;;;;;;8.23;4.78;;;;;;;32.97;61.99;100485.59;4891130;28;70462;-37
2023/08/27 05:46:36;;;;;;;7.15;4.50;;;;;;;32.90;61.13;100482.19;4909475;28;66756;-36
2023/08/27 05:49:07;;;;;;;9.05;4.80;;;;;;;32.82;60.32;100475.28;4905737;28;70017;-38
2023/08/27 05:51:37;;;;;;;10.73;3.92;;;;;;;32.67;59.65;100467.66;4914574;28;67151;-38
2023/08/27 05:54:08;;;;;;;6.00;4.20;;;;;;;32.62;58.81;100455.88;4896790;28;71607;-38
2023/08/27 05:56:38;;;;;;;6.97;3.60;;;;;;;32.56;58.10;100449.50;4918252;28;65697;-37
2023/08/27 05:59:13;;;;;;;14.43;3.40;;;;;;;32.47;56.65;100435.50;4889423;28;70119;-39
2023/08/27 06:01:43;;;;;;;3.80;3.40;;;;;;;32.42;55.29;100427.22;4904976;28;65950;-38
2023/08/27 06:04:14;;;;;;;5.53;2.90;;;;;;;32.33;55.94;100412.41;4897410;28;70008;-38
2023/08/27 06:06:44;;;;;;;4.25;2.88;;;;;;;32.33;54.72;100417.81;4932043;28;65570;-36
2023/08/27 06:09:16;;;;;;;3.17;2.90;;;;;;;32.28;54.30;100417.72;4922433;28;69269;-37
2023/08/27 06:11:46;;;;;;;3.92;2.88;;;;;;;32.21;53.44;100398.88;4910746;28;67610;-37
2023/08/27 06:14:16;;;;;;;3.22;2.85;;;;;;;32.20;53.25;100396.38;4912956;28;70395;-37
2023/08/27 06:16:46;;;;;;;3.10;2.80;;;;;;;32.22;52.17;100391.53;4904130;28;66069;-36
2023/08/27 06:19:16;;;;;;;2.40;2.20;;;;;;;32.13;52.43;100382.16;4916731;28;69961;-36
2023/08/27 06:21:48;;;;;;;;;;;;;;;31.99;51.85;100401.41;4922837;28;66762;-36
2023/08/27 06:24:18;;;;;;;2.05;1.90;;;;;;;32.15;51.34;100399.00;4928199;28;69846;-38
2023/08/27 06:26:47;;;;;;;5.03;2.33;;;;;;;32.05;50.90;100389.59;4918551;28;66586;-37
2023/08/27 06:29:18;;;;;;;2.60;2.20;;;;;;;32.12;50.25;100389.44;4914982;28;70332;-37
2023/08/27 06:31:48;;;;;;;2.47;2.00;;;;;;;32.12;50.30;100394.03;4904282;28;66829;-37
2023/08/27 06:34:18;;;;;;;2.35;2.00;;;;;;;32.10;49.65;100377.22;4930410;28;69505;-37
2023/08/27 06:36:48;;;;;;;1.92;1.73;;;;;;;32.12;49.63;100384.00;4920714;28;66744;-38
2023/08/27 06:39:18;;;;;;;1.83;1.65;;;;;;;32.12;48.95;100377.75;4905791;28;70195;-37
2023/08/27 06:41:48;;;;;;;4.53;1.73;;;;;;;32.12;49.16;100377.75;4918415;28;65546;-39
2023/08/27 06:44:19;;;;;;;1.40;1.25;;;;;;;32.09;48.77;100383.69;4895854;28;71585;-37
2023/08/27 06:46:52;;;;;;;6.20;1.60;;;;;;;32.05;48.65;100367.88;4891681;28;66371;-39
2023/08/27 06:49:23;;;;;;;2.67;1.52;;;;;;;32.13;48.47;100371.28;4906909;28;71008;-38
2023/08/27 06:51:53;;;;;;;1.43;1.17;;;;;;;32.12;48.17;100377.75;4899037;28;65756;-38
2023/08/27 06:54:23;;;;;;;2.15;1.70;;;;;;;32.15;48.34;100367.28;4901476;28;69221;-39
2023/08/27 06:56:54;;;;;;;1.80;1.70;;;;;;;32.16;47.78;100368.91;4907994;28;67937;-38
2023/08/27 06:59:25;;;;;;;1.75;1.40;;;;;;;32.12;47.67;100366.91;4873215;28;69940;-39
2023/08/27 07:01:55;;;;;;;1.77;1.55;;;;;;;32.09;47.43;100372.81;4904843;28;66885;-37
2023/08/27 07:04:27;;;;;;;1.60;1.38;;;;;;;32.10;47.32;100386.16;4914951;28;70110;-37
2023/08/27 07:06:57;;;;;;;1.90;1.20;;;;;;;32.07;47.36;100374.94;4925099;28;66076;-38
2023/08/27 07:09:28;;;;;;;3.97;1.35;;;;;;;32.04;46.80;100366.25;4907926;28;69562;-37
2023/08/27 07:11:59;;;;;;;1.70;1.55;;;;;;;32.03;46.90;100359.16;4923194;28;66963;-37
2023/08/27 07:14:29;;;;;;;1.38;1.20;;;;;;;32.01;46.64;100372.16;4919774;28;70072;-36
2023/08/27 07:16:59;;;;;;;1.67;1.10;;;;;;;31.71;46.54;100319.97;4913098;28;66241;-37
2023/08/27 07:19:29;;;;;;;1.25;1.15;;;;;;;32.01;46.04;100376.72;4894276;28;70512;-37
2023/08/27 07:22:00;;;;;;;1.67;1.10;;;;;;;32.00;45.76;100375.09;4900237;28;66059;-36
2023/08/27 07:24:30;;;;;;;1.08;0.95;;;;;;;31.96;45.92;100369.34;4900555;28;70633;-36
2023/08/27 07:27:00;;;;;;;0.98;0.85;;;;;;;32.01;45.33;100365.88;4913997;28;66594;-36
2023/08/27 07:29:31;;;;;;;1.33;1.05;;;;;;;31.98;45.64;100369.94;4890493;28;69242;-37
2023/08/27 07:32:01;;;;;;;3.28;1.00;;;;;;;31.96;45.29;100369.34;4913027;28;65249;-36
2023/08/27 07:34:31;;;;;;;1.13;0.90;;;;;;;31.98;45.54;100372.63;4913462;28;70141;-36
2023/08/27 07:37:02;;;;;;;1.07;0.97;;;;;;;31.97;45.21;100376.41;4912017;28;65999;-37
2023/08/27 07:39:34;;;;;;;;;;;;;;;31.80;45.37;100367.34;4912875;28;68516;-37
2023/08/27 07:42:04;;;;;;;1.98;1.30;;;;;;;31.91;44.57;100365.66;4917389;28;66704;-37
2023/08/27 07:44:34;;;;;;;1.08;0.98;;;;;;;31.86;44.99;100363.66;4915748;28;70823;-37
2023/08/27 07:47:04;;;;;;;1.20;1.05;;;;;;;31.89;45.14;100368.59;4918312;28;66166;-37
2023/08/27 07:49:34;;;;;;;1.10;0.80;;;;;;;31.88;44.59;100366.16;4914822;28;70083;-36
2023/08/27 07:52:04;;;;;;;1.50;0.95;;;;;;;31.83;44.83;100342.44;4906738;28;65915;-37
2023/08/27 07:54:35;;;;;;;1.77;1.05;;;;;;;31.88;44.50;100352.59;4901092;28;69665;-37
2023/08/27 07:57:05;;;;;;;7.35;1.25;;;;;;;31.87;44.93;100359.88;4908351;28;66429;-36
2023/08/27 07:59:36;;;;;;;1.42;1.10;;;;;;;31.85;44.87;100356.59;4918376;28;70223;-38
2023/08/27 08:02:06;;;;;;;1.23;1.10;;;;;;;31.81;44.78;100356.22;4906699;28;65487;-36
2023/08/27 08:04:37;;;;;;;4.25;1.50;;;;;;;31.82;44.84;100357.06;4905314;28;70556;-37
2023/08/27 08:07:07;;;;;;;2.65;1.85;;;;;;;31.72;44.58;100351.44;4918481;28;66644;-38
2023/08/27 08:09:37;;;;;;;3.35;2.38;;;;;;;31.81;44.78;100355.41;4919817;28;69649;-36
2023/08/27 08:12:07;;;;;;;3.10;2.83;;;;;;;31.78;44.90;100356.72;4920415;28;65209;-40
2023/08/27 08:14:38;;;;;;;3.45;3.15;;;;;;;31.52;44.91;100319.28;4895020;28;71030;-36
2023/08/27 08:17:08;;;;;;;3.55;3.25;;;;;;;31.71;45.02;100345.19;4902469;28;66612;-36
2023/08/27 08:19:39;;;;;;;4.03;3.72;;;;;;;31.46;44.88;100312.13;4925850;28;71789;-35
2023/08/27 08:22:09;;;;;;;4.53;4.20;;;;;;;31.74;44.95;100360.97;4926030;28;66114;-36
2023/08/27 08:24:39;;;;;;;4.50;4.20;;;;;;;31.73;44.72;100353.06;4921620;28;69738;-36
2023/08/27 08:27:09;;;;;;;4.68;4.30;;;;;;;31.75;45.17;100356.38;4924884;28;65599;-39
2023/08/27 08:29:39;;;;;;;5.80;4.38;;;;;;;31.82;46.17;100349.75;4919386;28;69247;-38
2023/08/27 08:32:09;;;;;;;5.05;4.75;;;;;;;31.95;46.84;100350.56;4915087;28;66604;-38
2023/08/27 08:34:40;;;;;;;5.65;5.15;;;;;;;31.20;47.38;100207.72;4912376;28;70173;-36
2023/08/27 08:37:10;;;;;;;5.85;5.35;;;;;;;31.94;47.70;100314.50;4926470;28;66062;-36
2023/08/27 08:39:40;;;;;;;6.07;5.57;;;;;;;32.22;48.34;100327.22;4924617;28;69990;-38
2023/08/27 08:42:15;;;;;;;7.07;6.40;;;;;;;32.36;49.08;100314.19;4925500;28;66679;-38
2023/08/27 08:44:55;;;;;;;6.57;6.18;;;;;;;32.33;49.40;100286.72;4917639;28;70156;-36
2023/08/27 08:47:27;;;;;;;6.82;6.32;;;;;;;32.41;49.65;100272.75;4911364;28;66362;-36
2023/08/27 08:50:02;;;;;;;7.13;6.57;;;;;;;32.28;49.98;100241.31;4924872;28;69801;-37
2023/08/27 08:52:38;;;;;;;7.60;7.00;;;;;;;32.66;50.13;100304.97;4916183;28;65452;-37
2023/08/27 08:55:10;;;;;;;7.95;7.45;;;;;;;32.05;50.74;100198.84;4923818;28;70513;-37
2023/08/27 08:57:51;;;;;;;9.13;7.55;;;;;;;32.65;51.42;100303.31;4914263;28;66043;-38
2023/08/27 09:00:23;;;;;;;10.50;9.70;;;;;;;32.84;54.43;100326.44;4922073;28;69593;-37
2023/08/27 09:02:54;;;;;;;10.57;9.63;;;;;;;32.97;54.24;100330.72;4913495;28;65946;-37
2023/08/27 09:05:25;;;;;;;11.02;9.98;;;;;;;33.04;54.48;100338.72;4922717;28;68968;-39
2023/08/27 09:07:56;;;;;;;12.57;9.55;;;;;;;33.06;54.33;100344.75;4919123;28;66638;-42
2023/08/27 09:10:29;;;;;;;10.40;9.48;;;;;;;33.05;54.75;100333.06;4900819;28;70490;-38
2023/08/27 09:13:02;;;;;;;10.68;9.63;;;;;;;32.71;54.79;100258.91;4926759;28;65257;-37
2023/08/27 09:15:32;;;;;;;12.07;9.05;;;;;;;33.05;54.51;100333.06;4896058;28;70087;-37
2023/08/27 09:18:03;;;;;;;10.32;9.18;;;;;;;33.11;55.12;100333.97;4890514;28;65473;-37
2023/08/27 09:20:33;;;;;;;8.65;7.95;;;;;;;33.20;54.98;100335.19;4914241;28;69669;-37
2023/08/27 09:23:04;;;;;;;13.40;8.43;;;;;;;33.21;55.81;100336.00;4914532;28;66098;-38
2023/08/27 09:25:34;;;;;;;12.00;8.80;;;;;;;33.23;57.01;100344.72;4912379;28;69664;-39
2023/08/27 09:28:06;;;;;;;10.25;9.43;;;;;;;33.30;58.14;100350.81;4910225;28;65920;-36
2023/08/27 09:30:36;;;;;;;12.02;7.60;;;;;;;33.31;59.17;100347.84;4916213;28;70160;-37
2023/08/27 09:33:06;;;;;;;12.75;6.30;;;;;;;33.32;59.78;100346.78;4914647;28;65203;-38
2023/08/27 09:35:38;;;;;;;12.35;7.28;;;;;;;33.41;59.07;100343.66;4923135;28;69503;-36
2023/08/27 09:38:11;;;;;;;;;;;;;;;33.31;60.90;100347.84;4925576;28;66871;-36
2023/08/27 09:40:41;;;;;;;9.85;6.82;;;;;;;33.45;58.92;100347.50;4923203;28;70137;-37
2023/08/27 09:43:11;;;;;;;12.57;5.57;;;;;;;33.36;56.93;100330.78;4931978;28;66242;-38
2023/08/27 09:45:42;;;;;;;5.85;4.68;;;;;;;33.51;56.06;100346.50;4923521;28;70329;-37
2023/08/27 09:48:23;;;;;;;43.22;6.28;;;;;;;33.51;54.57;100362.81;4933560;28;66546;-37
2023/08/27 09:51:05;;;;;;;16.20;5.85;;;;;;;33.56;56.50;100355.56;4939706;28;68897;-38
2023/08/27 09:53:35;;;;;;;15.85;6.18;;;;;;;33.60;56.53;100350.47;4926308;28;66098;-38
2023/08/27 09:56:06;;;;;;;11.18;6.00;;;;;;;33.64;57.23;100351.59;4925631;28;70285;-37
2023/08/27 09:58:38;;;;;;;14.68;6.20;;;;;;;33.38;57.59;100302.28;4917489;28;65872;-37
2023/08/27 10:01:08;;;;;;;10.60;6.65;;;;;;;33.69;58.05;100356.28;4908869;28;70501;-38
2023/08/27 10:03:38;;;;;;;12.60;4.65;;;;;;;33.73;57.11;100365.59;4923561;28;66594;-37
2023/08/27 10:06:09;;;;;;;7.13;5.45;;;;;;;33.75;56.61;100369.69;4931869;28;70185;-37
2023/08/27 10:08:54;;;;;;;8.77;6.55;;;;;;;33.68;58.84;100377.19;4934558;28;65919;-40
2023/08/27 10:11:28;;;;;;;6.13;5.40;;;;;;;33.76;57.52;100382.22;4934243;28;70267;-40
2023/08/27 10:13:59;;;;;;;10.30;6.30;;;;;;;33.73;58.97;100382.72;4920419;28;66262;-39
2023/08/27 10:16:36;;;;;;;14.50;6.28;;;;;;;33.74;60.26;100384.38;4922148;28;69869;-39
2023/08/27 10:19:06;;;;;;;7.68;6.65;;;;;;;33.87;60.56;100379.63;4930684;28;65765;-37
2023/08/27 10:21:36;;;;;;;13.65;7.55;;;;;;;33.77;61.64;100372.19;4929902;28;70017;-38
2023/08/27 10:24:10;;;;;;;9.18;7.35;;;;;;;33.68;61.89;100374.47;4932592;28;66476;-38
2023/08/27 10:26:46;;;;;;;12.32;7.70;;;;;;;33.31;62.98;100320.66;4930416;28;69947;-40
2023/08/27 10:29:18;;;;;;;17.40;8.60;;;;;;;33.61;64.14;100378.47;4919121;28;65644;-39
2023/08/27 10:31:48;;;;;;;12.13;8.15;;;;;;;33.58;64.71;100383.34;4914995;28;69912;-38
2023/08/27 10:34:18;;;;;;;11.02;7.82;;;;;;;33.60;64.93;100388.53;4922425;28;66501;-38
2023/08/27 10:36:51;;;;;;;19.10;7.85;;;;;;;33.25;65.04;100327.09;4916891;28;69953;-38
2023/08/27 10:39:25;;;;;;;6.97;6.10;;;;;;;33.59;65.79;100381.44;4918970;28;66517;-38
2023/08/27 10:41:55;;;;;;;7.38;6.68;;;;;;;33.54;65.62;100384.09;4922513;28;71046;-39
2023/08/27 10:44:25;;;;;;;9.32;5.78;;;;;;;33.28;66.00;100374.72;4934531;28;66366;-35
2023/08/27 10:47:17;;;;;;;10.63;6.85;;;;;;;33.53;65.71;100409.63;4920009;28;69289;-35
2023/08/27 10:49:52;;;;;;;19.67;7.30;;;;;;;33.59;65.59;100408.63;4916590;28;66772;-37
2023/08/27 10:52:27;;;;;;;16.10;7.07;;;;;;;33.13;66.39;100367.97;4908308;28;70161;-35
2023/08/27 10:55:01;;;;;;;11.50;5.65;;;;;;;33.48;65.36;100434.81;4912362;28;66113;-35
2023/08/27 10:57:37;;;;;;;8.18;5.30;;;;;;;33.49;64.89;100449.22;4925268;28;69557;-35
2023/08/27 11:00:12;;;;;;;6.43;4.72;;;;;;;33.22;64.43;100402.88;4924561;28;66481;-35
2023/08/27 11:03:13;;;;;;;8.73;5.35;;;;;;;33.50;64.83;100464.50;4916121;28;69867;-36
2023/08/27 11:05:45;;;;;;;12.82;5.50;;;;;;;33.52;64.23;100462.38;4923489;28;66235;-35
2023/08/27 11:08:18;;;;;;;12.73;5.47;;;;;;;33.25;64.16;100414.09;4924315;28;69435;-35
2023/08/27 11:10:48;;;;;;;8.93;5.55;;;;;;;33.59;63.88;100468.47;4908996;28;65230;-35
2023/08/27 11:13:39;;;;;;;6.88;4.88;;;;;;;33.51;63.88;100469.66;4924630;28;70467;-36
2023/08/27 11:16:16;;;;;;;6.88;4.95;;;;;;;33.25;63.24;100419.53;4925675;28;66181;-35
2023/08/27 11:18:50;;;;;;;8.00;4.95;;;;;;;33.60;63.16;100483.72;4924915;28;70357;-37
2023/08/27 11:21:26;;;;;;;5.28;4.47;;;;;;;33.59;63.01;100493.75;4935588;28;66067;-35
2023/08/27 11:24:16;;;;;;;7.85;4.97;;;;;;;33.54;62.94;100498.28;4934276;28;70428;-34
2023/08/27 11:26:50;;;;;;;7.95;3.95;;;;;;;33.51;62.33;100485.16;4934347;28;65165;-36
2023/08/27 11:29:23;;;;;;;6.03;4.13;;;;;;;33.57;61.61;100516.84;4911016;28;69942;-35
2023/08/27 11:31:56;;;;;;;7.03;3.58;;;;;;;33.57;61.68;100542.16;4936904;28;66641;-35
2023/08/27 11:34:35;;;;;;;5.00;3.75;;;;;;;33.12;61.84;100476.91;4917676;28;69235;-35
2023/08/27 11:37:06;;;;;;;5.68;4.57;;;;;;;33.52;61.67;100549.38;4926796;28;66541;-44
2023/08/27 11:39:37;;;;;;;10.85;4.43;;;;;;;33.51;60.37;100586.59;4919556;28;69445;-35
2023/08/27 11:42:15;;;;;;;4.25;3.88;;;;;;;33.32;59.30;100591.47;4922704;28;65291;-35
2023/08/27 11:44:47;;;;;;;7.22;3.95;;;;;;;33.06;58.29;100578.44;4913314;28;70370;-35